sensor_id;sensor_type;location;lat;lon;timestamp;P1;durP1;ratioP1;P2;durP2;ratioP2
9117;SDS011;4594;50.994;7.126;2023-02-04T00:02:21;12.07;;;3.73;;
9117;SDS011;4594;50.994;7.126;2023-02-04T00:04:47;17.70;;;4.33;;
9117;SDS011;4594;50.994;7.126;2023-02-04T00:07:13;14.27;;;3.63;;
9117;SDS011;4594;50.994;7.126;2023-02-04T00:09:40;7.73;;;3.63;;
9117;SDS011;4594;50.994;7.126;2023-02-04T00:12:05;9.90;;;3.47;;
9117;SDS011;4594;50.994;7.126;2023-02-04T00:14:34;10.53;;;3.53;;
9117;SDS011;4594;50.994;7.126;2023-02-04T00:17:00;12.03;;;3.80;;
9117;SDS011;4594;50.994;7.126;2023-02-04T00:19:25;16.60;;;4.57;;
9117;SDS011;4594;50.994;7.126;2023-02-04T00:21:51;9.23;;;4.10;;
9117;SDS011;4594;50.994;7.126;2023-02-04T00:24:17;11.10;;;3.57;;
9117;SDS011;4594;50.994;7.126;2023-02-04T00:26:42;9.20;;;3.77;;
9117;SDS011;4594;50.994;7.126;2023-02-04T00:29:08;11.23;;;3.40;;
9117;SDS011;4594;50.994;7.126;2023-02-04T00:31:34;14.50;;;3.90;;
9117;SDS011;4594;50.994;7.126;2023-02-04T00:33:59;9.93;;;3.87;;
9117;SDS011;4594;50.994;7.126;2023-02-04T00:36:25;13.43;;;4.03;;
9117;SDS011;4594;50.994;7.126;2023-02-04T00:38:51;9.50;;;3.77;;
9117;SDS011;4594;50.994;7.126;2023-02-04T00:41:16;7.90;;;3.53;;
9117;SDS011;4594;50.994;7.126;2023-02-04T00:43:42;11.93;;;4.00;;
9117;SDS011;4594;50.994;7.126;2023-02-04T00:46:08;15.73;;;3.90;;
9117;SDS011;4594;50.994;7.126;2023-02-04T00:48:34;15.63;;;4.00;;
9117;SDS011;4594;50.994;7.126;2023-02-04T00:51:00;22.93;;;4.60;;
9117;SDS011;4594;50.994;7.126;2023-02-04T00:53:26;12.07;;;3.83;;
9117;SDS011;4594;50.994;7.126;2023-02-04T00:55:52;9.30;;;3.60;;
9117;SDS011;4594;50.994;7.126;2023-02-04T00:58:17;11.07;;;4.07;;
9117;SDS011;4594;50.994;7.126;2023-02-04T01:00:43;12.87;;;3.70;;
9117;SDS011;4594;50.994;7.126;2023-02-04T01:03:09;11.07;;;4.17;;
9117;SDS011;4594;50.994;7.126;2023-02-04T01:05:34;12.63;;;4.10;;
9117;SDS011;4594;50.994;7.126;2023-02-04T01:08:00;13.87;;;3.57;;
9117;SDS011;4594;50.994;7.126;2023-02-04T01:10:26;16.10;;;4.07;;
9117;SDS011;4594;50.994;7.126;2023-02-04T01:12:52;11.43;;;3.47;;
9117;SDS011;4594;50.994;7.126;2023-02-04T01:15:18;6.53;;;2.93;;
9117;SDS011;4594;50.994;7.126;2023-02-04T01:17:44;14.13;;;3.60;;
9117;SDS011;4594;50.994;7.126;2023-02-04T01:20:10;11.77;;;4.13;;
9117;SDS011;4594;50.994;7.126;2023-02-04T01:22:36;12.03;;;4.43;;
9117;SDS011;4594;50.994;7.126;2023-02-04T01:25:02;17.10;;;4.10;;
9117;SDS011;4594;50.994;7.126;2023-02-04T01:27:28;14.80;;;4.10;;
9117;SDS011;4594;50.994;7.126;2023-02-04T01:29:53;14.83;;;3.73;;
9117;SDS011;4594;50.994;7.126;2023-02-04T01:32:19;9.53;;;4.47;;
9117;SDS011;4594;50.994;7.126;2023-02-04T01:34:45;13.23;;;4.10;;
9117;SDS011;4594;50.994;7.126;2023-02-04T01:37:10;8.27;;;3.50;;
9117;SDS011;4594;50.994;7.126;2023-02-04T01:39:36;12.93;;;4.20;;
9117;SDS011;4594;50.994;7.126;2023-02-04T01:42:02;14.03;;;4.20;;
9117;SDS011;4594;50.994;7.126;2023-02-04T01:44:28;13.97;;;3.97;;
9117;SDS011;4594;50.994;7.126;2023-02-04T01:46:54;15.83;;;4.50;;
9117;SDS011;4594;50.994;7.126;2023-02-04T01:49:20;17.43;;;6.63;;
9117;SDS011;4594;50.994;7.126;2023-02-04T01:51:46;14.27;;;5.80;;
9117;SDS011;4594;50.994;7.126;2023-02-04T01:54:12;11.60;;;5.10;;
9117;SDS011;4594;50.994;7.126;2023-02-04T01:56:40;15.07;;;4.70;;
9117;SDS011;4594;50.994;7.126;2023-02-04T01:59:11;15.77;;;4.30;;
9117;SDS011;4594;50.994;7.126;2023-02-04T02:01:50;16.57;;;5.30;;
9117;SDS011;4594;50.994;7.126;2023-02-04T02:04:18;16.50;;;7.03;;
9117;SDS011;4594;50.994;7.126;2023-02-04T02:07:03;22.47;;;6.93;;
9117;SDS011;4594;50.994;7.126;2023-02-04T02:09:30;15.43;;;5.60;;
9117;SDS011;4594;50.994;7.126;2023-02-04T02:11:59;15.60;;;5.50;;
9117;SDS011;4594;50.994;7.126;2023-02-04T02:14:27;12.50;;;4.60;;
9117;SDS011;4594;50.994;7.126;2023-02-04T02:16:53;16.53;;;5.90;;
9117;SDS011;4594;50.994;7.126;2023-02-04T02:19:26;13.27;;;5.00;;
9117;SDS011;4594;50.994;7.126;2023-02-04T02:24:49;12.53;;;4.50;;
9117;SDS011;4594;50.994;7.126;2023-02-04T02:27:14;12.93;;;4.13;;
9117;SDS011;4594;50.994;7.126;2023-02-04T02:29:41;15.10;;;5.73;;
9117;SDS011;4594;50.994;7.126;2023-02-04T02:32:07;14.40;;;5.20;;
9117;SDS011;4594;50.994;7.126;2023-02-04T02:34:35;10.73;;;4.27;;
9117;SDS011;4594;50.994;7.126;2023-02-04T02:37:03;15.97;;;4.50;;
9117;SDS011;4594;50.994;7.126;2023-02-04T02:39:31;9.40;;;3.73;;
9117;SDS011;4594;50.994;7.126;2023-02-04T02:41:57;11.13;;;4.37;;
9117;SDS011;4594;50.994;7.126;2023-02-04T02:44:24;13.57;;;4.33;;
9117;SDS011;4594;50.994;7.126;2023-02-04T02:46:51;11.23;;;4.03;;
9117;SDS011;4594;50.994;7.126;2023-02-04T02:49:18;11.23;;;4.03;;
9117;SDS011;4594;50.994;7.126;2023-02-04T02:51:45;11.57;;;3.10;;
9117;SDS011;4594;50.994;7.126;2023-02-04T02:54:17;17.73;;;4.73;;
9117;SDS011;4594;50.994;7.126;2023-02-04T02:56:48;13.37;;;4.27;;
9117;SDS011;4594;50.994;7.126;2023-02-04T02:59:15;10.67;;;3.70;;
9117;SDS011;4594;50.994;7.126;2023-02-04T03:01:42;11.13;;;3.50;;
9117;SDS011;4594;50.994;7.126;2023-02-04T03:04:12;9.67;;;3.73;;
9117;SDS011;4594;50.994;7.126;2023-02-04T03:06:40;8.93;;;3.40;;
9117;SDS011;4594;50.994;7.126;2023-02-04T03:09:06;11.33;;;4.07;;
9117;SDS011;4594;50.994;7.126;2023-02-04T03:11:32;8.33;;;3.57;;
9117;SDS011;4594;50.994;7.126;2023-02-04T03:13:58;12.63;;;4.07;;
9117;SDS011;4594;50.994;7.126;2023-02-04T03:16:28;10.90;;;3.60;;
9117;SDS011;4594;50.994;7.126;2023-02-04T03:18:58;13.37;;;3.73;;
9117;SDS011;4594;50.994;7.126;2023-02-04T03:21:25;14.20;;;3.80;;
9117;SDS011;4594;50.994;7.126;2023-02-04T03:23:52;10.10;;;3.90;;
9117;SDS011;4594;50.994;7.126;2023-02-04T03:26:21;11.10;;;3.90;;
9117;SDS011;4594;50.994;7.126;2023-02-04T03:28:51;12.50;;;3.73;;
9117;SDS011;4594;50.994;7.126;2023-02-04T03:31:18;10.80;;;3.77;;
9117;SDS011;4594;50.994;7.126;2023-02-04T03:33:45;16.27;;;4.00;;
9117;SDS011;4594;50.994;7.126;2023-02-04T03:36:11;10.20;;;3.70;;
9117;SDS011;4594;50.994;7.126;2023-02-04T03:38:37;11.47;;;3.90;;
9117;SDS011;4594;50.994;7.126;2023-02-04T03:41:02;7.73;;;3.27;;
9117;SDS011;4594;50.994;7.126;2023-02-04T03:43:28;11.07;;;3.40;;
9117;SDS011;4594;50.994;7.126;2023-02-04T03:45:54;9.47;;;3.63;;
9117;SDS011;4594;50.994;7.126;2023-02-04T03:48:20;10.90;;;3.60;;
9117;SDS011;4594;50.994;7.126;2023-02-04T03:50:45;16.40;;;4.70;;
9117;SDS011;4594;50.994;7.126;2023-02-04T03:53:11;7.10;;;3.30;;
9117;SDS011;4594;50.994;7.126;2023-02-04T03:55:37;13.23;;;3.97;;
9117;SDS011;4594;50.994;7.126;2023-02-04T03:58:03;9.50;;;3.70;;
9117;SDS011;4594;50.994;7.126;2023-02-04T04:00:30;14.97;;;4.20;;
9117;SDS011;4594;50.994;7.126;2023-02-04T04:02:56;12.53;;;3.63;;
9117;SDS011;4594;50.994;7.126;2023-02-04T04:05:22;12.80;;;3.27;;
9117;SDS011;4594;50.994;7.126;2023-02-04T04:07:49;8.30;;;3.50;;
9117;SDS011;4594;50.994;7.126;2023-02-04T04:10:15;13.47;;;4.03;;
9117;SDS011;4594;50.994;7.126;2023-02-04T04:12:41;10.70;;;3.73;;
9117;SDS011;4594;50.994;7.126;2023-02-04T04:15:06;11.03;;;3.50;;
9117;SDS011;4594;50.994;7.126;2023-02-04T04:17:33;12.53;;;3.33;;
9117;SDS011;4594;50.994;7.126;2023-02-04T04:19:59;13.17;;;3.67;;
9117;SDS011;4594;50.994;7.126;2023-02-04T04:22:24;9.17;;;3.40;;
9117;SDS011;4594;50.994;7.126;2023-02-04T04:24:50;10.70;;;3.43;;
9117;SDS011;4594;50.994;7.126;2023-02-04T04:27:16;14.87;;;3.97;;
9117;SDS011;4594;50.994;7.126;2023-02-04T04:29:41;15.73;;;4.13;;
9117;SDS011;4594;50.994;7.126;2023-02-04T04:32:07;11.63;;;3.33;;
9117;SDS011;4594;50.994;7.126;2023-02-04T04:34:33;11.40;;;3.53;;
9117;SDS011;4594;50.994;7.126;2023-02-04T04:36:59;7.43;;;3.37;;
9117;SDS011;4594;50.994;7.126;2023-02-04T04:39:25;11.63;;;3.57;;
9117;SDS011;4594;50.994;7.126;2023-02-04T04:41:51;7.97;;;3.30;;
9117;SDS011;4594;50.994;7.126;2023-02-04T04:44:17;11.97;;;3.53;;
9117;SDS011;4594;50.994;7.126;2023-02-04T04:46:42;11.30;;;3.93;;
9117;SDS011;4594;50.994;7.126;2023-02-04T04:49:08;8.33;;;3.53;;
9117;SDS011;4594;50.994;7.126;2023-02-04T04:51:34;9.67;;;2.87;;
9117;SDS011;4594;50.994;7.126;2023-02-04T04:53:59;12.97;;;3.60;;
9117;SDS011;4594;50.994;7.126;2023-02-04T04:56:25;10.80;;;3.50;;
9117;SDS011;4594;50.994;7.126;2023-02-04T04:58:51;14.37;;;4.07;;
9117;SDS011;4594;50.994;7.126;2023-02-04T05:01:16;14.53;;;4.03;;
9117;SDS011;4594;50.994;7.126;2023-02-04T05:03:42;13.23;;;3.70;;
9117;SDS011;4594;50.994;7.126;2023-02-04T05:06:08;14.77;;;3.53;;
9117;SDS011;4594;50.994;7.126;2023-02-04T05:08:35;14.37;;;3.73;;
9117;SDS011;4594;50.994;7.126;2023-02-04T05:11:01;11.27;;;3.20;;
9117;SDS011;4594;50.994;7.126;2023-02-04T05:13:27;12.27;;;3.50;;
9117;SDS011;4594;50.994;7.126;2023-02-04T05:15:53;12.23;;;3.47;;
9117;SDS011;4594;50.994;7.126;2023-02-04T05:18:19;14.37;;;3.50;;
9117;SDS011;4594;50.994;7.126;2023-02-04T05:20:45;7.67;;;3.77;;
9117;SDS011;4594;50.994;7.126;2023-02-04T05:23:10;12.83;;;3.47;;
9117;SDS011;4594;50.994;7.126;2023-02-04T05:25:36;10.73;;;3.27;;
9117;SDS011;4594;50.994;7.126;2023-02-04T05:28:02;13.23;;;3.77;;
9117;SDS011;4594;50.994;7.126;2023-02-04T05:30:28;12.33;;;3.27;;
9117;SDS011;4594;50.994;7.126;2023-02-04T05:32:53;6.57;;;3.30;;
9117;SDS011;4594;50.994;7.126;2023-02-04T05:35:19;10.23;;;3.20;;
9117;SDS011;4594;50.994;7.126;2023-02-04T05:37:45;6.83;;;3.40;;
9117;SDS011;4594;50.994;7.126;2023-02-04T05:40:11;16.57;;;4.50;;
9117;SDS011;4594;50.994;7.126;2023-02-04T05:42:37;11.27;;;3.87;;
9117;SDS011;4594;50.994;7.126;2023-02-04T05:45:03;10.50;;;3.40;;
9117;SDS011;4594;50.994;7.126;2023-02-04T05:47:29;11.97;;;4.13;;
9117;SDS011;4594;50.994;7.126;2023-02-04T05:49:55;6.80;;;3.33;;
9117;SDS011;4594;50.994;7.126;2023-02-04T05:52:21;15.57;;;4.07;;
9117;SDS011;4594;50.994;7.126;2023-02-04T05:54:46;9.67;;;3.27;;
9117;SDS011;4594;50.994;7.126;2023-02-04T05:57:12;8.70;;;3.47;;
9117;SDS011;4594;50.994;7.126;2023-02-04T05:59:37;16.23;;;4.37;;
9117;SDS011;4594;50.994;7.126;2023-02-04T06:02:03;16.47;;;4.13;;
9117;SDS011;4594;50.994;7.126;2023-02-04T06:04:29;12.77;;;4.47;;
9117;SDS011;4594;50.994;7.126;2023-02-04T06:06:55;10.03;;;3.50;;
9117;SDS011;4594;50.994;7.126;2023-02-04T06:09:20;7.67;;;3.40;;
9117;SDS011;4594;50.994;7.126;2023-02-04T06:11:46;17.57;;;4.40;;
9117;SDS011;4594;50.994;7.126;2023-02-04T06:14:11;16.20;;;4.00;;
9117;SDS011;4594;50.994;7.126;2023-02-04T06:16:37;15.73;;;4.13;;
9117;SDS011;4594;50.994;7.126;2023-02-04T06:19:03;17.60;;;3.80;;
9117;SDS011;4594;50.994;7.126;2023-02-04T06:21:28;11.50;;;3.97;;
9117;SDS011;4594;50.994;7.126;2023-02-04T06:23:54;15.63;;;4.33;;
9117;SDS011;4594;50.994;7.126;2023-02-04T06:26:20;14.03;;;4.13;;
9117;SDS011;4594;50.994;7.126;2023-02-04T06:28:46;10.13;;;3.13;;
9117;SDS011;4594;50.994;7.126;2023-02-04T06:31:11;12.97;;;4.23;;
9117;SDS011;4594;50.994;7.126;2023-02-04T06:33:37;13.70;;;4.20;;
9117;SDS011;4594;50.994;7.126;2023-02-04T06:36:03;11.13;;;3.83;;
9117;SDS011;4594;50.994;7.126;2023-02-04T06:38:29;9.00;;;3.93;;
9117;SDS011;4594;50.994;7.126;2023-02-04T06:40:55;9.40;;;4.07;;
9117;SDS011;4594;50.994;7.126;2023-02-04T06:43:21;10.97;;;4.40;;
9117;SDS011;4594;50.994;7.126;2023-02-04T06:45:49;13.03;;;4.10;;
9117;SDS011;4594;50.994;7.126;2023-02-04T06:48:15;9.93;;;3.70;;
9117;SDS011;4594;50.994;7.126;2023-02-04T06:50:42;13.60;;;4.23;;
9117;SDS011;4594;50.994;7.126;2023-02-04T06:53:07;12.43;;;4.07;;
9117;SDS011;4594;50.994;7.126;2023-02-04T06:55:33;12.23;;;3.80;;
9117;SDS011;4594;50.994;7.126;2023-02-04T06:57:59;14.70;;;4.40;;
9117;SDS011;4594;50.994;7.126;2023-02-04T07:00:25;18.13;;;4.50;;
9117;SDS011;4594;50.994;7.126;2023-02-04T07:02:50;12.57;;;5.47;;
9117;SDS011;4594;50.994;7.126;2023-02-04T07:05:16;14.17;;;4.97;;
9117;SDS011;4594;50.994;7.126;2023-02-04T07:07:42;13.20;;;5.27;;
9117;SDS011;4594;50.994;7.126;2023-02-04T07:10:08;14.70;;;5.63;;
9117;SDS011;4594;50.994;7.126;2023-02-04T07:12:34;13.27;;;5.50;;
9117;SDS011;4594;50.994;7.126;2023-02-04T07:15:00;14.87;;;5.20;;
9117;SDS011;4594;50.994;7.126;2023-02-04T07:17:25;14.23;;;5.17;;
9117;SDS011;4594;50.994;7.126;2023-02-04T07:19:51;13.60;;;4.83;;
9117;SDS011;4594;50.994;7.126;2023-02-04T07:22:17;13.13;;;4.87;;
9117;SDS011;4594;50.994;7.126;2023-02-04T07:24:43;19.10;;;4.90;;
9117;SDS011;4594;50.994;7.126;2023-02-04T07:27:08;17.23;;;5.17;;
9117;SDS011;4594;50.994;7.126;2023-02-04T07:29:34;12.37;;;4.80;;
9117;SDS011;4594;50.994;7.126;2023-02-04T07:32:00;16.87;;;5.07;;
9117;SDS011;4594;50.994;7.126;2023-02-04T07:34:25;14.93;;;4.87;;
9117;SDS011;4594;50.994;7.126;2023-02-04T07:36:51;15.43;;;5.27;;
9117;SDS011;4594;50.994;7.126;2023-02-04T07:39:17;7.67;;;4.30;;
9117;SDS011;4594;50.994;7.126;2023-02-04T07:41:43;12.33;;;4.37;;
9117;SDS011;4594;50.994;7.126;2023-02-04T07:44:08;10.70;;;4.07;;
9117;SDS011;4594;50.994;7.126;2023-02-04T07:46:34;15.17;;;4.40;;
9117;SDS011;4594;50.994;7.126;2023-02-04T07:49:00;12.33;;;4.33;;
9117;SDS011;4594;50.994;7.126;2023-02-04T07:51:25;12.07;;;4.30;;
9117;SDS011;4594;50.994;7.126;2023-02-04T07:53:51;13.20;;;4.30;;
9117;SDS011;4594;50.994;7.126;2023-02-04T07:56:17;9.50;;;4.70;;
9117;SDS011;4594;50.994;7.126;2023-02-04T07:58:42;12.03;;;4.53;;
9117;SDS011;4594;50.994;7.126;2023-02-04T08:01:08;8.87;;;4.00;;
9117;SDS011;4594;50.994;7.126;2023-02-04T08:03:34;12.50;;;4.57;;
9117;SDS011;4594;50.994;7.126;2023-02-04T08:05:59;11.50;;;5.07;;
9117;SDS011;4594;50.994;7.126;2023-02-04T08:08:26;12.73;;;4.67;;
9117;SDS011;4594;50.994;7.126;2023-02-04T08:10:51;10.43;;;4.37;;
9117;SDS011;4594;50.994;7.126;2023-02-04T08:13:17;12.33;;;4.27;;
9117;SDS011;4594;50.994;7.126;2023-02-04T08:15:42;9.43;;;4.40;;
9117;SDS011;4594;50.994;7.126;2023-02-04T08:18:08;13.83;;;5.03;;
9117;SDS011;4594;50.994;7.126;2023-02-04T08:20:34;12.20;;;4.50;;
9117;SDS011;4594;50.994;7.126;2023-02-04T08:22:59;14.67;;;5.13;;
9117;SDS011;4594;50.994;7.126;2023-02-04T08:25:25;6.77;;;4.27;;
9117;SDS011;4594;50.994;7.126;2023-02-04T08:27:52;11.30;;;4.40;;
9117;SDS011;4594;50.994;7.126;2023-02-04T08:30:18;16.17;;;4.50;;
9117;SDS011;4594;50.994;7.126;2023-02-04T08:32:44;15.27;;;4.47;;
9117;SDS011;4594;50.994;7.126;2023-02-04T08:35:09;12.03;;;4.43;;
9117;SDS011;4594;50.994;7.126;2023-02-04T08:37:36;14.20;;;5.30;;
9117;SDS011;4594;50.994;7.126;2023-02-04T08:40:02;9.00;;;3.80;;
9117;SDS011;4594;50.994;7.126;2023-02-04T08:42:29;12.13;;;4.37;;
9117;SDS011;4594;50.994;7.126;2023-02-04T08:44:54;13.67;;;4.60;;
9117;SDS011;4594;50.994;7.126;2023-02-04T08:47:20;11.80;;;4.33;;
9117;SDS011;4594;50.994;7.126;2023-02-04T08:49:46;13.27;;;5.20;;
9117;SDS011;4594;50.994;7.126;2023-02-04T08:52:11;13.50;;;4.03;;
9117;SDS011;4594;50.994;7.126;2023-02-04T08:54:37;14.40;;;4.17;;
9117;SDS011;4594;50.994;7.126;2023-02-04T08:57:03;16.37;;;4.70;;
9117;SDS011;4594;50.994;7.126;2023-02-04T08:59:28;11.97;;;4.77;;
9117;SDS011;4594;50.994;7.126;2023-02-04T09:01:54;11.40;;;4.73;;
9117;SDS011;4594;50.994;7.126;2023-02-04T09:04:21;8.87;;;4.23;;
9117;SDS011;4594;50.994;7.126;2023-02-04T09:06:48;10.07;;;4.13;;
9117;SDS011;4594;50.994;7.126;2023-02-04T09:09:15;15.37;;;4.77;;
9117;SDS011;4594;50.994;7.126;2023-02-04T09:11:40;13.77;;;4.63;;
9117;SDS011;4594;50.994;7.126;2023-02-04T09:14:07;13.17;;;5.03;;
9117;SDS011;4594;50.994;7.126;2023-02-04T09:16:33;18.83;;;5.27;;
9117;SDS011;4594;50.994;7.126;2023-02-04T09:18:59;17.53;;;5.10;;
9117;SDS011;4594;50.994;7.126;2023-02-04T09:21:26;13.67;;;4.70;;
9117;SDS011;4594;50.994;7.126;2023-02-04T09:23:53;15.13;;;5.23;;
9117;SDS011;4594;50.994;7.126;2023-02-04T09:26:19;11.70;;;5.37;;
9117;SDS011;4594;50.994;7.126;2023-02-04T09:28:44;17.63;;;5.80;;
9117;SDS011;4594;50.994;7.126;2023-02-04T09:31:11;14.50;;;5.47;;
9117;SDS011;4594;50.994;7.126;2023-02-04T09:33:37;12.33;;;4.60;;
9117;SDS011;4594;50.994;7.126;2023-02-04T09:36:03;15.73;;;5.50;;
9117;SDS011;4594;50.994;7.126;2023-02-04T09:38:29;12.27;;;5.53;;
9117;SDS011;4594;50.994;7.126;2023-02-04T09:41:02;16.60;;;5.50;;
9117;SDS011;4594;50.994;7.126;2023-02-04T09:43:33;18.60;;;5.80;;
9117;SDS011;4594;50.994;7.126;2023-02-04T09:46:06;14.97;;;5.60;;
9117;SDS011;4594;50.994;7.126;2023-02-04T09:48:44;12.23;;;4.87;;
9117;SDS011;4594;50.994;7.126;2023-02-04T09:51:17;19.07;;;6.00;;
9117;SDS011;4594;50.994;7.126;2023-02-04T09:53:49;14.60;;;5.57;;
9117;SDS011;4594;50.994;7.126;2023-02-04T09:56:18;19.67;;;6.87;;
9117;SDS011;4594;50.994;7.126;2023-02-04T09:58:44;19.80;;;6.30;;
9117;SDS011;4594;50.994;7.126;2023-02-04T10:01:14;13.47;;;5.70;;
9117;SDS011;4594;50.994;7.126;2023-02-04T10:03:45;15.47;;;6.40;;
9117;SDS011;4594;50.994;7.126;2023-02-04T10:06:15;15.83;;;5.33;;
9117;SDS011;4594;50.994;7.126;2023-02-04T10:08:43;18.13;;;6.47;;
9117;SDS011;4594;50.994;7.126;2023-02-04T10:11:11;19.03;;;6.43;;
9117;SDS011;4594;50.994;7.126;2023-02-04T10:13:43;15.13;;;6.67;;
9117;SDS011;4594;50.994;7.126;2023-02-04T10:16:21;24.10;;;6.77;;
9117;SDS011;4594;50.994;7.126;2023-02-04T10:18:56;13.93;;;6.40;;
9117;SDS011;4594;50.994;7.126;2023-02-04T10:21:29;21.43;;;7.20;;
9117;SDS011;4594;50.994;7.126;2023-02-04T10:24:01;18.67;;;7.23;;
9117;SDS011;4594;50.994;7.126;2023-02-04T10:26:31;24.40;;;6.93;;
9117;SDS011;4594;50.994;7.126;2023-02-04T10:36:48;18.20;;;7.47;;
9117;SDS011;4594;50.994;7.126;2023-02-04T10:39:22;18.00;;;7.07;;
9117;SDS011;4594;50.994;7.126;2023-02-04T10:41:52;18.40;;;7.57;;
9117;SDS011;4594;50.994;7.126;2023-02-04T10:44:33;14.40;;;7.57;;
9117;SDS011;4594;50.994;7.126;2023-02-04T10:47:01;18.57;;;8.03;;
9117;SDS011;4594;50.994;7.126;2023-02-04T10:49:31;14.53;;;7.30;;
9117;SDS011;4594;50.994;7.126;2023-02-04T10:51:57;17.67;;;7.10;;
9117;SDS011;4594;50.994;7.126;2023-02-04T10:54:26;20.07;;;7.87;;
9117;SDS011;4594;50.994;7.126;2023-02-04T10:57:15;21.70;;;8.17;;
9117;SDS011;4594;50.994;7.126;2023-02-04T10:59:53;19.57;;;8.13;;
9117;SDS011;4594;50.994;7.126;2023-02-04T11:02:34;19.47;;;7.73;;
9117;SDS011;4594;50.994;7.126;2023-02-04T11:05:10;15.33;;;7.43;;
9117;SDS011;4594;50.994;7.126;2023-02-04T11:07:38;17.90;;;7.93;;
9117;SDS011;4594;50.994;7.126;2023-02-04T11:10:04;14.80;;;6.93;;
9117;SDS011;4594;50.994;7.126;2023-02-04T11:12:39;15.20;;;7.20;;
9117;SDS011;4594;50.994;7.126;2023-02-04T11:15:42;16.17;;;7.03;;
9117;SDS011;4594;50.994;7.126;2023-02-04T11:20:46;14.27;;;7.33;;
9117;SDS011;4594;50.994;7.126;2023-02-04T11:26:00;16.23;;;7.30;;
9117;SDS011;4594;50.994;7.126;2023-02-04T11:33:47;17.30;;;7.57;;
9117;SDS011;4594;50.994;7.126;2023-02-04T11:36:26;21.63;;;7.57;;
9117;SDS011;4594;50.994;7.126;2023-02-04T11:38:51;20.70;;;7.00;;
9117;SDS011;4594;50.994;7.126;2023-02-04T11:41:24;18.40;;;7.00;;
9117;SDS011;4594;50.994;7.126;2023-02-04T11:43:54;21.00;;;7.53;;
9117;SDS011;4594;50.994;7.126;2023-02-04T11:46:21;16.43;;;6.83;;
9117;SDS011;4594;50.994;7.126;2023-02-04T11:48:55;19.20;;;6.70;;
9117;SDS011;4594;50.994;7.126;2023-02-04T11:51:25;17.07;;;7.07;;
9117;SDS011;4594;50.994;7.126;2023-02-04T11:53:56;15.03;;;7.00;;
9117;SDS011;4594;50.994;7.126;2023-02-04T11:56:22;16.57;;;6.40;;
9117;SDS011;4594;50.994;7.126;2023-02-04T11:58:51;21.23;;;7.43;;
9117;SDS011;4594;50.994;7.126;2023-02-04T12:01:23;18.50;;;7.57;;
9117;SDS011;4594;50.994;7.126;2023-02-04T12:03:58;16.27;;;7.27;;
9117;SDS011;4594;50.994;7.126;2023-02-04T12:06:28;15.83;;;6.40;;
9117;SDS011;4594;50.994;7.126;2023-02-04T12:09:45;16.23;;;6.80;;
9117;SDS011;4594;50.994;7.126;2023-02-04T12:11:52;19.47;;;6.90;;
9117;SDS011;4594;50.994;7.126;2023-02-04T12:14:20;20.83;;;7.43;;
9117;SDS011;4594;50.994;7.126;2023-02-04T12:16:52;16.10;;;7.73;;
9117;SDS011;4594;50.994;7.126;2023-02-04T12:19:20;28.00;;;8.20;;
9117;SDS011;4594;50.994;7.126;2023-02-04T12:21:46;19.40;;;7.53;;
9117;SDS011;4594;50.994;7.126;2023-02-04T12:24:12;15.60;;;7.13;;
9117;SDS011;4594;50.994;7.126;2023-02-04T12:26:37;20.77;;;7.03;;
9117;SDS011;4594;50.994;7.126;2023-02-04T12:29:03;15.00;;;7.00;;
9117;SDS011;4594;50.994;7.126;2023-02-04T12:31:29;22.60;;;7.50;;
9117;SDS011;4594;50.994;7.126;2023-02-04T12:33:57;15.87;;;7.07;;
9117;SDS011;4594;50.994;7.126;2023-02-04T12:36:24;26.50;;;8.30;;
9117;SDS011;4594;50.994;7.126;2023-02-04T12:38:51;21.87;;;7.33;;
9117;SDS011;4594;50.994;7.126;2023-02-04T12:41:18;20.53;;;7.33;;
9117;SDS011;4594;50.994;7.126;2023-02-04T12:43:44;18.57;;;6.97;;
9117;SDS011;4594;50.994;7.126;2023-02-04T12:46:10;21.87;;;7.00;;
9117;SDS011;4594;50.994;7.126;2023-02-04T12:48:36;22.63;;;7.70;;
9117;SDS011;4594;50.994;7.126;2023-02-04T12:51:05;20.70;;;8.00;;
9117;SDS011;4594;50.994;7.126;2023-02-04T12:53:31;22.70;;;7.63;;
9117;SDS011;4594;50.994;7.126;2023-02-04T12:55:57;22.90;;;7.93;;
9117;SDS011;4594;50.994;7.126;2023-02-04T12:58:23;23.57;;;8.20;;
9117;SDS011;4594;50.994;7.126;2023-02-04T13:00:49;22.93;;;8.17;;
9117;SDS011;4594;50.994;7.126;2023-02-04T13:03:15;17.50;;;8.20;;
9117;SDS011;4594;50.994;7.126;2023-02-04T13:05:40;19.37;;;8.03;;
9117;SDS011;4594;50.994;7.126;2023-02-04T13:08:06;25.47;;;8.13;;
9117;SDS011;4594;50.994;7.126;2023-02-04T13:10:32;20.93;;;7.57;;
9117;SDS011;4594;50.994;7.126;2023-02-04T13:12:58;13.13;;;6.60;;
9117;SDS011;4594;50.994;7.126;2023-02-04T13:15:24;17.70;;;6.77;;
9117;SDS011;4594;50.994;7.126;2023-02-04T13:17:51;15.87;;;7.27;;
9117;SDS011;4594;50.994;7.126;2023-02-04T13:20:17;18.77;;;7.07;;
9117;SDS011;4594;50.994;7.126;2023-02-04T13:22:43;17.00;;;6.73;;
9117;SDS011;4594;50.994;7.126;2023-02-04T13:25:09;16.50;;;7.30;;
9117;SDS011;4594;50.994;7.126;2023-02-04T13:27:35;16.50;;;7.33;;
9117;SDS011;4594;50.994;7.126;2023-02-04T13:30:03;21.17;;;7.37;;
9117;SDS011;4594;50.994;7.126;2023-02-04T13:32:31;20.83;;;7.27;;
9117;SDS011;4594;50.994;7.126;2023-02-04T13:34:57;19.97;;;7.30;;
9117;SDS011;4594;50.994;7.126;2023-02-04T13:37:23;15.63;;;6.60;;
9117;SDS011;4594;50.994;7.126;2023-02-04T13:39:49;15.17;;;6.33;;
9117;SDS011;4594;50.994;7.126;2023-02-04T13:42:14;17.73;;;7.17;;
9117;SDS011;4594;50.994;7.126;2023-02-04T13:44:40;13.07;;;6.87;;
9117;SDS011;4594;50.994;7.126;2023-02-04T13:47:06;16.37;;;7.33;;
9117;SDS011;4594;50.994;7.126;2023-02-04T13:49:31;13.57;;;7.17;;
9117;SDS011;4594;50.994;7.126;2023-02-04T13:51:57;13.07;;;7.57;;
9117;SDS011;4594;50.994;7.126;2023-02-04T13:54:23;17.20;;;7.33;;
9117;SDS011;4594;50.994;7.126;2023-02-04T13:56:49;20.40;;;7.27;;
9117;SDS011;4594;50.994;7.126;2023-02-04T13:59:15;16.73;;;7.67;;
9117;SDS011;4594;50.994;7.126;2023-02-04T14:01:40;19.43;;;8.23;;
9117;SDS011;4594;50.994;7.126;2023-02-04T14:04:06;13.73;;;7.20;;
9117;SDS011;4594;50.994;7.126;2023-02-04T14:06:32;16.83;;;7.03;;
9117;SDS011;4594;50.994;7.126;2023-02-04T14:09:02;12.20;;;6.90;;
9117;SDS011;4594;50.994;7.126;2023-02-04T14:11:28;16.17;;;7.43;;
9117;SDS011;4594;50.994;7.126;2023-02-04T14:13:54;19.37;;;6.80;;
9117;SDS011;4594;50.994;7.126;2023-02-04T14:16:20;13.63;;;6.57;;
9117;SDS011;4594;50.994;7.126;2023-02-04T14:18:46;14.50;;;7.57;;
9117;SDS011;4594;50.994;7.126;2023-02-04T14:21:12;15.67;;;6.60;;
9117;SDS011;4594;50.994;7.126;2023-02-04T14:23:38;17.63;;;7.20;;
9117;SDS011;4594;50.994;7.126;2023-02-04T14:26:03;13.50;;;7.43;;
9117;SDS011;4594;50.994;7.126;2023-02-04T14:28:29;16.10;;;7.07;;
9117;SDS011;4594;50.994;7.126;2023-02-04T14:30:55;16.27;;;7.90;;
9117;SDS011;4594;50.994;7.126;2023-02-04T14:33:20;21.50;;;7.67;;
9117;SDS011;4594;50.994;7.126;2023-02-04T14:35:46;18.17;;;7.47;;
9117;SDS011;4594;50.994;7.126;2023-02-04T14:38:12;19.87;;;7.93;;
9117;SDS011;4594;50.994;7.126;2023-02-04T14:40:40;13.67;;;7.23;;
9117;SDS011;4594;50.994;7.126;2023-02-04T14:43:07;23.13;;;7.73;;
9117;SDS011;4594;50.994;7.126;2023-02-04T14:45:35;17.47;;;7.40;;
9117;SDS011;4594;50.994;7.126;2023-02-04T14:48:02;17.93;;;7.30;;
9117;SDS011;4594;50.994;7.126;2023-02-04T14:50:28;14.77;;;6.97;;
9117;SDS011;4594;50.994;7.126;2023-02-04T14:52:55;14.00;;;7.20;;
9117;SDS011;4594;50.994;7.126;2023-02-04T14:55:21;19.43;;;7.97;;
9117;SDS011;4594;50.994;7.126;2023-02-04T14:57:51;15.57;;;8.03;;
9117;SDS011;4594;50.994;7.126;2023-02-04T15:00:17;11.57;;;7.13;;
9117;SDS011;4594;50.994;7.126;2023-02-04T15:02:44;14.20;;;7.40;;
9117;SDS011;4594;50.994;7.126;2023-02-04T15:05:11;19.67;;;7.70;;
9117;SDS011;4594;50.994;7.126;2023-02-04T15:07:39;12.17;;;6.53;;
9117;SDS011;4594;50.994;7.126;2023-02-04T15:10:05;11.10;;;7.13;;
9117;SDS011;4594;50.994;7.126;2023-02-04T15:12:32;15.07;;;7.47;;
9117;SDS011;4594;50.994;7.126;2023-02-04T15:14:58;17.13;;;8.17;;
9117;SDS011;4594;50.994;7.126;2023-02-04T15:17:24;15.97;;;8.13;;
9117;SDS011;4594;50.994;7.126;2023-02-04T15:19:50;17.57;;;8.80;;
9117;SDS011;4594;50.994;7.126;2023-02-04T15:22:15;15.57;;;7.30;;
9117;SDS011;4594;50.994;7.126;2023-02-04T15:24:41;19.50;;;8.10;;